Terminal Aerodrome Forecast
Issued by NWS Paducah, KY

Home | Current Version | Previous Version | Text Only | Print | Product List | Glossary On
Versions: 1 2 3 4 5 6 7 8 9 10 11 12 13 14 15 16 17 18 19 20 21 22 23 24 25 26
637
FTUS43 KPAH 171038 AAB
TAFEVV
TAF AMD
KEVV 171038Z 1711/1806 14005KT 4SM BR OVC004
     FM171400 13007KT 6SM BR BKN008
     FM171600 16009KT P6SM FEW008 BKN080
     FM172100 17011G17KT P6SM SCT030 OVC060
     FM180300 19013G23KT P6SM SCT015 OVC030=

USA.gov is the U.S. government's official web portal to all federal, state and local government web resources and services.